sensor_id;sensor_type;location;lat;lon;timestamp;pressure;altitude;pressure_sealevel;temperature;humidity
38880;BME280;25887;30.194;-97.880;2023-12-04T00:01:53;98361.41;;;21.66;30.54
38880;BME280;25887;30.194;-97.880;2023-12-04T00:04:19;98368.59;;;21.61;30.46
38880;BME280;25887;30.194;-97.880;2023-12-04T00:06:46;98364.44;;;21.57;30.38
38880;BME280;25887;30.194;-97.880;2023-12-04T00:12:34;98373.75;;;21.44;30.46
38880;BME280;25887;30.194;-97.880;2023-12-04T00:17:26;98382.91;;;21.34;30.63
38880;BME280;25887;30.194;-97.880;2023-12-04T00:23:14;98380.84;;;21.20;31.08
38880;BME280;25887;30.194;-97.880;2023-12-04T00:25:40;98377.66;;;21.13;30.93
38880;BME280;25887;30.194;-97.880;2023-12-04T00:28:07;98383.09;;;21.09;30.98
38880;BME280;25887;30.194;-97.880;2023-12-04T00:30:33;98389.41;;;21.03;30.93
38880;BME280;25887;30.194;-97.880;2023-12-04T00:33:18;98386.03;;;21.01;30.94
38880;BME280;25887;30.194;-97.880;2023-12-04T00:52:42;98395.75;;;20.55;31.54
38880;BME280;25887;30.194;-97.880;2023-12-04T00:55:09;98399.44;;;20.50;31.65
38880;BME280;25887;30.194;-97.880;2023-12-04T00:57:35;98399.59;;;20.45;31.88
38880;BME280;25887;30.194;-97.880;2023-12-04T01:00:02;98401.47;;;20.42;31.70
38880;BME280;25887;30.194;-97.880;2023-12-04T01:05:51;98406.22;;;20.32;31.82
38880;BME280;25887;30.194;-97.880;2023-12-04T01:08:17;98403.06;;;20.24;31.80
38880;BME280;25887;30.194;-97.880;2023-12-04T01:14:18;98388.78;;;20.11;31.90
38880;BME280;25887;30.194;-97.880;2023-12-04T01:16:47;98387.38;;;20.02;32.10
38880;BME280;25887;30.194;-97.880;2023-12-04T01:25:45;98399.28;;;19.86;32.22
38880;BME280;25887;30.194;-97.880;2023-12-04T01:28:22;98401.13;;;19.82;32.26
38880;BME280;25887;30.194;-97.880;2023-12-04T01:30:48;98410.84;;;19.79;32.41
38880;BME280;25887;30.194;-97.880;2023-12-04T01:33:15;98397.06;;;19.75;32.47
38880;BME280;25887;30.194;-97.880;2023-12-04T01:35:41;98393.59;;;19.74;32.64
38880;BME280;25887;30.194;-97.880;2023-12-04T01:38:07;98398.03;;;19.72;32.40
38880;BME280;25887;30.194;-97.880;2023-12-04T01:40:35;98403.31;;;19.71;32.50
38880;BME280;25887;30.194;-97.880;2023-12-04T01:46:23;98397.34;;;19.67;32.55
38880;BME280;25887;30.194;-97.880;2023-12-04T01:52:32;98391.41;;;19.64;32.53
38880;BME280;25887;30.194;-97.880;2023-12-04T01:55:01;98394.91;;;19.63;32.58
38880;BME280;25887;30.194;-97.880;2023-12-04T01:58:05;98389.78;;;19.60;32.63
38880;BME280;25887;30.194;-97.880;2023-12-04T02:01:04;98398.53;;;19.59;32.74
38880;BME280;25887;30.194;-97.880;2023-12-04T02:03:54;98404.66;;;19.56;32.80
38880;BME280;25887;30.194;-97.880;2023-12-04T02:06:20;98407.53;;;19.48;32.70
38880;BME280;25887;30.194;-97.880;2023-12-04T02:09:06;98409.44;;;19.43;32.89
38880;BME280;25887;30.194;-97.880;2023-12-04T02:11:35;98416.47;;;19.41;32.85
38880;BME280;25887;30.194;-97.880;2023-12-04T02:14:01;98427.06;;;19.37;32.89
38880;BME280;25887;30.194;-97.880;2023-12-04T02:16:29;98419.22;;;19.37;32.94
38880;BME280;25887;30.194;-97.880;2023-12-04T02:18:57;98418.50;;;19.33;32.88
38880;BME280;25887;30.194;-97.880;2023-12-04T02:21:23;98409.91;;;19.31;33.14
38880;BME280;25887;30.194;-97.880;2023-12-04T02:23:51;98427.31;;;19.29;33.13
38880;BME280;25887;30.194;-97.880;2023-12-04T02:26:23;98430.81;;;19.28;33.14
38880;BME280;25887;30.194;-97.880;2023-12-04T02:28:58;98431.78;;;19.26;33.26
38880;BME280;25887;30.194;-97.880;2023-12-04T02:31:27;98436.22;;;19.24;33.04
38880;BME280;25887;30.194;-97.880;2023-12-04T02:33:56;98449.25;;;19.24;33.22
38880;BME280;25887;30.194;-97.880;2023-12-04T02:36:24;98445.88;;;19.20;33.35
38880;BME280;25887;30.194;-97.880;2023-12-04T02:38:52;98451.06;;;19.20;33.41
38880;BME280;25887;30.194;-97.880;2023-12-04T02:41:19;98467.59;;;19.19;33.49
38880;BME280;25887;30.194;-97.880;2023-12-04T02:43:45;98470.28;;;19.17;33.49
38880;BME280;25887;30.194;-97.880;2023-12-04T02:46:12;98476.38;;;19.16;33.43
38880;BME280;25887;30.194;-97.880;2023-12-04T02:48:38;98478.16;;;19.16;33.22
38880;BME280;25887;30.194;-97.880;2023-12-04T02:51:05;98484.25;;;19.15;33.42
38880;BME280;25887;30.194;-97.880;2023-12-04T02:53:31;98483.41;;;19.14;33.42
38880;BME280;25887;30.194;-97.880;2023-12-04T02:55:58;98489.50;;;19.13;33.57
38880;BME280;25887;30.194;-97.880;2023-12-04T02:58:24;98486.16;;;19.10;33.48
38880;BME280;25887;30.194;-97.880;2023-12-04T03:00:50;98488.94;;;19.04;33.45
38880;BME280;25887;30.194;-97.880;2023-12-04T03:03:16;98487.34;;;19.00;33.57
38880;BME280;25887;30.194;-97.880;2023-12-04T03:05:42;98498.81;;;18.94;33.50
38880;BME280;25887;30.194;-97.880;2023-12-04T03:08:09;98494.63;;;18.88;33.56
38880;BME280;25887;30.194;-97.880;2023-12-04T03:10:35;98506.09;;;18.83;33.55
38880;BME280;25887;30.194;-97.880;2023-12-04T03:13:01;98505.47;;;18.75;33.65
38880;BME280;25887;30.194;-97.880;2023-12-04T03:15:27;98501.22;;;18.72;33.85
38880;BME280;25887;30.194;-97.880;2023-12-04T03:17:55;98503.09;;;18.67;33.73
38880;BME280;25887;30.194;-97.880;2023-12-04T03:20:21;98518.00;;;18.62;33.95
38880;BME280;25887;30.194;-97.880;2023-12-04T03:22:48;98509.47;;;18.57;33.82
38880;BME280;25887;30.194;-97.880;2023-12-04T03:25:14;98512.19;;;18.54;34.14
38880;BME280;25887;30.194;-97.880;2023-12-04T03:27:40;98508.75;;;18.52;34.09
38880;BME280;25887;30.194;-97.880;2023-12-04T03:30:07;98522.75;;;18.48;33.90
38880;BME280;25887;30.194;-97.880;2023-12-04T03:32:33;98524.56;;;18.46;34.24
38880;BME280;25887;30.194;-97.880;2023-12-04T03:34:59;98518.59;;;18.42;34.12
38880;BME280;25887;30.194;-97.880;2023-12-04T03:37:26;98506.47;;;18.41;34.07
38880;BME280;25887;30.194;-97.880;2023-12-04T03:39:53;98505.72;;;18.37;34.11
38880;BME280;25887;30.194;-97.880;2023-12-04T03:42:19;98504.09;;;18.33;34.28
38880;BME280;25887;30.194;-97.880;2023-12-04T03:44:45;98508.56;;;18.28;34.12
38880;BME280;25887;30.194;-97.880;2023-12-04T03:47:12;98514.72;;;18.26;34.16
38880;BME280;25887;30.194;-97.880;2023-12-04T03:49:38;98526.13;;;18.22;34.38
38880;BME280;25887;30.194;-97.880;2023-12-04T03:52:04;98523.59;;;18.19;34.57
38880;BME280;25887;30.194;-97.880;2023-12-04T03:54:31;98522.84;;;18.15;34.32
38880;BME280;25887;30.194;-97.880;2023-12-04T03:56:57;98519.41;;;18.13;34.54
38880;BME280;25887;30.194;-97.880;2023-12-04T03:59:23;98512.59;;;18.09;34.41
38880;BME280;25887;30.194;-97.880;2023-12-04T04:01:49;98516.09;;;18.08;34.43
38880;BME280;25887;30.194;-97.880;2023-12-04T04:04:16;98508.44;;;18.03;34.80
38880;BME280;25887;30.194;-97.880;2023-12-04T04:06:42;98505.88;;;18.02;34.70
38880;BME280;25887;30.194;-97.880;2023-12-04T04:09:08;98519.78;;;18.01;34.67
38880;BME280;25887;30.194;-97.880;2023-12-04T04:11:35;98521.56;;;17.99;34.79
38880;BME280;25887;30.194;-97.880;2023-12-04T04:14:01;98522.38;;;18.01;34.67
38880;BME280;25887;30.194;-97.880;2023-12-04T04:16:27;98521.56;;;17.99;34.70
38880;BME280;25887;30.194;-97.880;2023-12-04T04:18:54;98524.19;;;17.97;34.73
38880;BME280;25887;30.194;-97.880;2023-12-04T04:21:20;98527.63;;;17.99;34.70
38880;BME280;25887;30.194;-97.880;2023-12-04T04:23:46;98525.88;;;18.00;34.65
38880;BME280;25887;30.194;-97.880;2023-12-04T04:26:12;98529.38;;;17.99;34.74
38880;BME280;25887;30.194;-97.880;2023-12-04T04:28:39;98537.16;;;17.99;34.69
38880;BME280;25887;30.194;-97.880;2023-12-04T04:31:05;98529.38;;;17.99;34.63
38880;BME280;25887;30.194;-97.880;2023-12-04T04:33:31;98535.47;;;17.98;34.81
38880;BME280;25887;30.194;-97.880;2023-12-04T04:35:57;98542.38;;;17.99;34.83
38880;BME280;25887;30.194;-97.880;2023-12-04T04:38:24;98542.38;;;17.99;34.75
38880;BME280;25887;30.194;-97.880;2023-12-04T04:40:50;98549.25;;;18.00;34.84
38880;BME280;25887;30.194;-97.880;2023-12-04T04:43:19;98557.88;;;18.02;34.97
38880;BME280;25887;30.194;-97.880;2023-12-04T04:45:45;98544.06;;;18.00;34.73
38880;BME280;25887;30.194;-97.880;2023-12-04T04:48:11;98551.00;;;17.99;34.87
38880;BME280;25887;30.194;-97.880;2023-12-04T04:50:38;98564.81;;;18.01;34.64
38880;BME280;25887;30.194;-97.880;2023-12-04T04:53:04;98560.50;;;18.00;34.75
38880;BME280;25887;30.194;-97.880;2023-12-04T04:55:30;98563.97;;;18.01;34.66
38880;BME280;25887;30.194;-97.880;2023-12-04T04:57:57;98565.72;;;18.00;34.74
38880;BME280;25887;30.194;-97.880;2023-12-04T05:00:23;98564.88;;;18.00;34.96
38880;BME280;25887;30.194;-97.880;2023-12-04T05:02:50;98574.38;;;18.01;34.50
38880;BME280;25887;30.194;-97.880;2023-12-04T05:05:17;98570.00;;;18.01;34.73
38880;BME280;25887;30.194;-97.880;2023-12-04T05:07:43;98558.81;;;17.99;34.59
38880;BME280;25887;30.194;-97.880;2023-12-04T05:10:09;98552.75;;;17.99;34.77
38880;BME280;25887;30.194;-97.880;2023-12-04T05:12:37;98554.47;;;18.00;34.82
38880;BME280;25887;30.194;-97.880;2023-12-04T05:15:04;98553.66;;;17.98;34.86
38880;BME280;25887;30.194;-97.880;2023-12-04T05:17:30;98550.22;;;17.96;34.61
38880;BME280;25887;30.194;-97.880;2023-12-04T05:19:56;98556.31;;;17.95;34.82
38880;BME280;25887;30.194;-97.880;2023-12-04T05:22:22;98554.53;;;17.97;34.82
38880;BME280;25887;30.194;-97.880;2023-12-04T05:24:48;98550.28;;;17.94;34.72
38880;BME280;25887;30.194;-97.880;2023-12-04T05:27:15;98551.97;;;17.95;34.95
38880;BME280;25887;30.194;-97.880;2023-12-04T05:33:03;98558.28;;;17.87;34.70
38880;BME280;25887;30.194;-97.880;2023-12-04T05:35:56;98555.63;;;17.88;34.84
38880;BME280;25887;30.194;-97.880;2023-12-04T05:38:22;98558.41;;;17.82;35.10
38880;BME280;25887;30.194;-97.880;2023-12-04T05:44:30;98553.22;;;17.80;34.97
38880;BME280;25887;30.194;-97.880;2023-12-04T06:15:09;98528.00;;;17.50;35.21
38880;BME280;25887;30.194;-97.880;2023-12-04T06:17:36;98529.81;;;17.48;35.31
38880;BME280;25887;30.194;-97.880;2023-12-04T06:20:02;98524.59;;;17.48;35.41
38880;BME280;25887;30.194;-97.880;2023-12-04T06:22:29;98533.28;;;17.47;35.37
38880;BME280;25887;30.194;-97.880;2023-12-04T06:24:55;98541.03;;;17.48;35.47
38880;BME280;25887;30.194;-97.880;2023-12-04T06:27:22;98538.44;;;17.48;35.64
38880;BME280;25887;30.194;-97.880;2023-12-04T06:29:49;98539.25;;;17.50;35.56
38880;BME280;25887;30.194;-97.880;2023-12-04T06:32:16;98539.25;;;17.50;35.38
38880;BME280;25887;30.194;-97.880;2023-12-04T06:34:43;98537.53;;;17.51;35.34
38880;BME280;25887;30.194;-97.880;2023-12-04T06:37:11;98540.97;;;17.51;35.59
38880;BME280;25887;30.194;-97.880;2023-12-04T06:39:39;98536.63;;;17.52;35.50
38880;BME280;25887;30.194;-97.880;2023-12-04T06:42:08;98541.78;;;17.53;35.53
38880;BME280;25887;30.194;-97.880;2023-12-04T06:44:35;98536.56;;;17.55;35.54
38880;BME280;25887;30.194;-97.880;2023-12-04T06:47:02;98538.25;;;17.56;35.43
38880;BME280;25887;30.194;-97.880;2023-12-04T06:49:33;98533.91;;;17.57;35.42
38880;BME280;25887;30.194;-97.880;2023-12-04T06:52:01;98542.59;;;17.55;35.58
38880;BME280;25887;30.194;-97.880;2023-12-04T06:54:27;98539.16;;;17.55;35.72
38880;BME280;25887;30.194;-97.880;2023-12-04T06:56:54;98536.59;;;17.53;35.60
38880;BME280;25887;30.194;-97.880;2023-12-04T06:59:20;98534.00;;;17.53;35.72
38880;BME280;25887;30.194;-97.880;2023-12-04T07:01:47;98533.16;;;17.53;35.56
38880;BME280;25887;30.194;-97.880;2023-12-04T07:04:13;98538.34;;;17.53;35.63
38880;BME280;25887;30.194;-97.880;2023-12-04T07:06:40;98540.13;;;17.51;35.75
38880;BME280;25887;30.194;-97.880;2023-12-04T07:09:06;98542.72;;;17.51;35.73
38880;BME280;25887;30.194;-97.880;2023-12-04T07:11:36;98536.69;;;17.49;35.76
38880;BME280;25887;30.194;-97.880;2023-12-04T07:14:02;98533.25;;;17.48;35.75
38880;BME280;25887;30.194;-97.880;2023-12-04T07:16:28;98535.84;;;17.48;35.90
38880;BME280;25887;30.194;-97.880;2023-12-04T07:18:54;98532.41;;;17.48;35.76
38880;BME280;25887;30.194;-97.880;2023-12-04T07:21:21;98529.81;;;17.48;35.69
38880;BME280;25887;30.194;-97.880;2023-12-04T07:23:47;98535.00;;;17.48;35.71
38880;BME280;25887;30.194;-97.880;2023-12-04T07:26:14;98522.91;;;17.47;35.80
38880;BME280;25887;30.194;-97.880;2023-12-04T07:28:40;98534.16;;;17.47;36.08
38880;BME280;25887;30.194;-97.880;2023-12-04T07:31:06;98527.19;;;17.48;36.00
38880;BME280;25887;30.194;-97.880;2023-12-04T07:33:32;98542.72;;;17.51;36.17
38880;BME280;25887;30.194;-97.880;2023-12-04T07:36:00;98534.91;;;17.52;36.14
38880;BME280;25887;30.194;-97.880;2023-12-04T07:38:27;98535.75;;;17.53;35.98
38880;BME280;25887;30.194;-97.880;2023-12-04T07:40:53;98535.66;;;17.56;36.09
38880;BME280;25887;30.194;-97.880;2023-12-04T07:43:19;98533.91;;;17.57;36.14
38880;BME280;25887;30.194;-97.880;2023-12-04T07:45:45;98532.22;;;17.55;36.16
38880;BME280;25887;30.194;-97.880;2023-12-04T07:48:12;98535.59;;;17.59;36.20
38880;BME280;25887;30.194;-97.880;2023-12-04T07:50:38;98537.25;;;17.62;36.10
38880;BME280;25887;30.194;-97.880;2023-12-04T07:53:05;98534.59;;;17.63;36.17
38880;BME280;25887;30.194;-97.880;2023-12-04T07:55:33;98544.09;;;17.64;36.08
38880;BME280;25887;30.194;-97.880;2023-12-04T07:58:00;98549.25;;;17.66;36.12
38880;BME280;25887;30.194;-97.880;2023-12-04T08:00:26;98543.19;;;17.67;36.39
38880;BME280;25887;30.194;-97.880;2023-12-04T08:02:52;98546.59;;;17.69;36.33
38880;BME280;25887;30.194;-97.880;2023-12-04T08:05:19;98544.84;;;17.71;36.20
38880;BME280;25887;30.194;-97.880;2023-12-04T08:07:45;98549.09;;;17.73;36.24
38880;BME280;25887;30.194;-97.880;2023-12-04T08:10:13;98543.88;;;17.73;36.35
38880;BME280;25887;30.194;-97.880;2023-12-04T08:12:39;98542.13;;;17.74;36.35
38880;BME280;25887;30.194;-97.880;2023-12-04T08:15:06;98539.53;;;17.75;36.45
38880;BME280;25887;30.194;-97.880;2023-12-04T08:17:33;98543.84;;;17.76;36.45
38880;BME280;25887;30.194;-97.880;2023-12-04T08:20:00;98554.22;;;17.76;36.49
38880;BME280;25887;30.194;-97.880;2023-12-04T08:22:26;98607.91;;;17.77;36.39
38880;BME280;25887;30.194;-97.880;2023-12-04T08:24:52;98670.38;;;17.73;36.31
38880;BME280;25887;30.194;-97.880;2023-12-04T08:27:19;98619.44;;;17.64;36.17
38880;BME280;25887;30.194;-97.880;2023-12-04T08:29:45;98672.41;;;17.59;36.45
38880;BME280;25887;30.194;-97.880;2023-12-04T08:32:11;98647.44;;;17.53;36.31
38880;BME280;25887;30.194;-97.880;2023-12-04T08:34:37;98673.47;;;17.51;36.48
38880;BME280;25887;30.194;-97.880;2023-12-04T08:37:04;98675.25;;;17.48;36.75
38880;BME280;25887;30.194;-97.880;2023-12-04T08:39:30;98677.09;;;17.44;36.75
38880;BME280;25887;30.194;-97.880;2023-12-04T08:41:56;98673.69;;;17.41;36.59
38880;BME280;25887;30.194;-97.880;2023-12-04T08:44:23;98678.06;;;17.39;36.47
38880;BME280;25887;30.194;-97.880;2023-12-04T08:46:49;98678.16;;;17.36;36.61
38880;BME280;25887;30.194;-97.880;2023-12-04T08:49:16;98678.22;;;17.33;36.59
38880;BME280;25887;30.194;-97.880;2023-12-04T08:51:42;98681.75;;;17.30;36.54
38880;BME280;25887;30.194;-97.880;2023-12-04T08:54:09;98680.94;;;17.28;36.70
38880;BME280;25887;30.194;-97.880;2023-12-04T08:56:35;98680.09;;;17.26;36.54
38880;BME280;25887;30.194;-97.880;2023-12-04T08:59:01;98687.91;;;17.24;36.72
38880;BME280;25887;30.194;-97.880;2023-12-04T09:01:28;98704.44;;;17.22;36.49
38880;BME280;25887;30.194;-97.880;2023-12-04T09:03:55;98710.56;;;17.18;36.30
38880;BME280;25887;30.194;-97.880;2023-12-04T09:06:21;98708.88;;;17.15;36.54
38880;BME280;25887;30.194;-97.880;2023-12-04T09:08:48;98730.59;;;17.13;36.55
38880;BME280;25887;30.194;-97.880;2023-12-04T09:11:14;98722.88;;;17.08;36.41
38880;BME280;25887;30.194;-97.880;2023-12-04T09:13:40;98722.97;;;17.05;36.26
38880;BME280;25887;30.194;-97.880;2023-12-04T09:16:07;98736.78;;;17.04;36.35
38880;BME280;25887;30.194;-97.880;2023-12-04T09:18:35;98740.34;;;17.00;36.42
38880;BME280;25887;30.194;-97.880;2023-12-04T09:21:02;98744.78;;;16.96;36.31
38880;BME280;25887;30.194;-97.880;2023-12-04T09:23:28;98746.50;;;16.94;36.21
38880;BME280;25887;30.194;-97.880;2023-12-04T09:25:56;98744.03;;;16.90;36.13
38880;BME280;25887;30.194;-97.880;2023-12-04T09:28:22;98750.19;;;16.84;36.19
38880;BME280;25887;30.194;-97.880;2023-12-04T09:30:48;98758.91;;;16.82;36.33
38880;BME280;25887;30.194;-97.880;2023-12-04T09:33:14;98753.78;;;16.77;36.30
38880;BME280;25887;30.194;-97.880;2023-12-04T09:35:41;98747.81;;;16.72;36.22
38880;BME280;25887;30.194;-97.880;2023-12-04T09:38:09;98753.06;;;16.67;36.29
38880;BME280;25887;30.194;-97.880;2023-12-04T09:40:36;98758.28;;;16.64;36.20
38880;BME280;25887;30.194;-97.880;2023-12-04T09:43:04;98756.66;;;16.60;36.06
38880;BME280;25887;30.194;-97.880;2023-12-04T09:45:32;98770.56;;;16.56;36.03
38880;BME280;25887;30.194;-97.880;2023-12-04T09:48:07;98765.47;;;16.52;35.89
38880;BME280;25887;30.194;-97.880;2023-12-04T09:50:36;98769.00;;;16.46;35.92
38880;BME280;25887;30.194;-97.880;2023-12-04T09:53:02;98770.81;;;16.42;36.08
38880;BME280;25887;30.194;-97.880;2023-12-04T09:55:29;98775.22;;;16.37;35.92
38880;BME280;25887;30.194;-97.880;2023-12-04T09:57:56;98776.16;;;16.32;35.79
38880;BME280;25887;30.194;-97.880;2023-12-04T10:00:23;98777.94;;;16.30;35.93
38880;BME280;25887;30.194;-97.880;2023-12-04T10:02:50;98770.22;;;16.25;35.70
38880;BME280;25887;30.194;-97.880;2023-12-04T10:05:17;98778.06;;;16.22;35.76
38880;BME280;25887;30.194;-97.880;2023-12-04T10:07:44;98778.13;;;16.19;35.67
38880;BME280;25887;30.194;-97.880;2023-12-04T10:10:17;98774.72;;;16.15;35.66
38880;BME280;25887;30.194;-97.880;2023-12-04T10:12:47;98778.25;;;16.10;35.60
38880;BME280;25887;30.194;-97.880;2023-12-04T10:15:13;98794.72;;;16.07;35.53
38880;BME280;25887;30.194;-97.880;2023-12-04T10:17:41;98787.88;;;16.03;35.53
38880;BME280;25887;30.194;-97.880;2023-12-04T10:20:15;98790.50;;;16.00;35.42
38880;BME280;25887;30.194;-97.880;2023-12-04T10:22:54;98782.75;;;15.99;35.65
38880;BME280;25887;30.194;-97.880;2023-12-04T10:25:24;98775.06;;;15.93;35.38
38880;BME280;25887;30.194;-97.880;2023-12-04T10:27:51;98782.03;;;15.89;35.53
38880;BME280;25887;30.194;-97.880;2023-12-04T10:30:25;98788.09;;;15.86;35.18
38880;BME280;25887;30.194;-97.880;2023-12-04T10:32:56;98794.19;;;15.84;35.26
38880;BME280;25887;30.194;-97.880;2023-12-04T10:35:45;98795.13;;;15.81;34.77
38880;BME280;25887;30.194;-97.880;2023-12-04T10:38:12;98795.16;;;15.77;35.13
38880;BME280;25887;30.194;-97.880;2023-12-04T10:40:42;98801.28;;;15.73;34.87
38880;BME280;25887;30.194;-97.880;2023-12-04T10:43:24;98809.91;;;15.73;34.80
38880;BME280;25887;30.194;-97.880;2023-12-04T10:45:51;98804.81;;;15.67;34.75
38880;BME280;25887;30.194;-97.880;2023-12-04T10:48:18;98814.34;;;15.65;35.07
38880;BME280;25887;30.194;-97.880;2023-12-04T10:50:46;98814.34;;;15.60;34.70
38880;BME280;25887;30.194;-97.880;2023-12-04T10:53:17;98820.41;;;15.59;34.66
38880;BME280;25887;30.194;-97.880;2023-12-04T10:55:44;98816.13;;;15.55;34.61
38880;BME280;25887;30.194;-97.880;2023-12-04T10:58:13;98823.97;;;15.52;34.83
38880;BME280;25887;30.194;-97.880;2023-12-04T11:00:48;98826.56;;;15.52;34.57
38880;BME280;25887;30.194;-97.880;2023-12-04T11:03:31;98818.81;;;15.48;34.69
38880;BME280;25887;30.194;-97.880;2023-12-04T11:06:02;98830.97;;;15.44;35.16
38880;BME280;25887;30.194;-97.880;2023-12-04T11:08:33;98827.56;;;15.42;34.77
38880;BME280;25887;30.194;-97.880;2023-12-04T11:11:05;98835.31;;;15.42;35.07
38880;BME280;25887;30.194;-97.880;2023-12-04T11:13:40;98835.38;;;15.36;34.71
38880;BME280;25887;30.194;-97.880;2023-12-04T11:16:18;98845.72;;;15.38;34.77
38880;BME280;25887;30.194;-97.880;2023-12-04T11:18:51;98850.06;;;15.36;34.83
38880;BME280;25887;30.194;-97.880;2023-12-04T11:21:20;98850.13;;;15.29;34.92
38880;BME280;25887;30.194;-97.880;2023-12-04T11:23:48;98855.31;;;15.28;34.71
38880;BME280;25887;30.194;-97.880;2023-12-04T11:26:15;98851.91;;;15.23;34.92
38880;BME280;25887;30.194;-97.880;2023-12-04T11:28:42;98854.53;;;15.21;34.80
38880;BME280;25887;30.194;-97.880;2023-12-04T11:31:09;98862.34;;;15.15;34.50
38880;BME280;25887;30.194;-97.880;2023-12-04T11:33:37;98864.13;;;15.12;34.61
38880;BME280;25887;30.194;-97.880;2023-12-04T11:36:12;98867.59;;;15.11;34.75
38880;BME280;25887;30.194;-97.880;2023-12-04T11:38:44;98869.38;;;15.05;34.53
38880;BME280;25887;30.194;-97.880;2023-12-04T11:41:21;98867.66;;;15.01;34.80
38880;BME280;25887;30.194;-97.880;2023-12-04T11:43:48;98879.78;;;14.99;34.76
38880;BME280;25887;30.194;-97.880;2023-12-04T11:46:24;98886.69;;;14.97;34.94
38880;BME280;25887;30.194;-97.880;2023-12-04T11:48:54;98882.41;;;14.93;34.73
38880;BME280;25887;30.194;-97.880;2023-12-04T11:54:10;98900.59;;;14.87;34.62
38880;BME280;25887;30.194;-97.880;2023-12-04T11:56:36;98907.53;;;14.82;34.39
38880;BME280;25887;30.194;-97.880;2023-12-04T11:59:06;98903.25;;;14.80;34.90
38880;BME280;25887;30.194;-97.880;2023-12-04T12:01:39;98909.28;;;14.77;34.65
38880;BME280;25887;30.194;-97.880;2023-12-04T12:04:07;98926.56;;;14.75;34.84
38880;BME280;25887;30.194;-97.880;2023-12-04T12:06:42;98924.88;;;14.71;34.82
38880;BME280;25887;30.194;-97.880;2023-12-04T12:09:09;98936.06;;;14.70;34.70
38880;BME280;25887;30.194;-97.880;2023-12-04T12:11:36;98941.28;;;14.65;34.68
38880;BME280;25887;30.194;-97.880;2023-12-04T12:14:02;98945.63;;;14.63;34.54
38880;BME280;25887;30.194;-97.880;2023-12-04T12:16:31;98951.66;;;14.61;34.70
38880;BME280;25887;30.194;-97.880;2023-12-04T12:18:58;98967.22;;;14.56;34.84
38880;BME280;25887;30.194;-97.880;2023-12-04T12:21:25;98974.97;;;14.53;34.85
38880;BME280;25887;30.194;-97.880;2023-12-04T12:23:52;98976.72;;;14.53;34.87
38880;BME280;25887;30.194;-97.880;2023-12-04T12:26:18;98980.19;;;14.48;34.78
38880;BME280;25887;30.194;-97.880;2023-12-04T12:28:45;98983.66;;;14.46;34.79
38880;BME280;25887;30.194;-97.880;2023-12-04T12:31:11;98988.81;;;14.43;34.77
38880;BME280;25887;30.194;-97.880;2023-12-04T12:33:37;98993.13;;;14.39;35.04
38880;BME280;25887;30.194;-97.880;2023-12-04T12:36:04;99000.03;;;14.37;35.05
38880;BME280;25887;30.194;-97.880;2023-12-04T12:38:30;99000.94;;;14.33;34.78
38880;BME280;25887;30.194;-97.880;2023-12-04T12:41:00;99004.38;;;14.31;35.12
38880;BME280;25887;30.194;-97.880;2023-12-04T12:43:28;99006.16;;;14.24;34.82
38880;BME280;25887;30.194;-97.880;2023-12-04T12:45:54;99007.88;;;14.22;35.19
38880;BME280;25887;30.194;-97.880;2023-12-04T12:48:20;99012.22;;;14.17;34.89
38880;BME280;25887;30.194;-97.880;2023-12-04T12:50:46;99007.91;;;14.13;34.97
38880;BME280;25887;30.194;-97.880;2023-12-04T12:53:17;99023.44;;;14.11;35.30
38880;BME280;25887;30.194;-97.880;2023-12-04T12:55:45;99031.16;;;14.08;34.70
38880;BME280;25887;30.194;-97.880;2023-12-04T12:58:11;99037.22;;;14.06;34.98
38880;BME280;25887;30.194;-97.880;2023-12-04T13:00:43;99045.84;;;14.05;35.03
38880;BME280;25887;30.194;-97.880;2023-12-04T13:03:16;99051.88;;;14.05;34.98
38880;BME280;25887;30.194;-97.880;2023-12-04T13:05:42;99054.44;;;14.01;34.91
38880;BME280;25887;30.194;-97.880;2023-12-04T13:08:09;99052.72;;;14.00;35.14
38880;BME280;25887;30.194;-97.880;2023-12-04T13:10:40;99054.47;;;13.99;35.15
38880;BME280;25887;30.194;-97.880;2023-12-04T13:13:13;99057.06;;;13.98;35.29
38880;BME280;25887;30.194;-97.880;2023-12-04T13:15:42;99057.06;;;13.94;34.92
38880;BME280;25887;30.194;-97.880;2023-12-04T13:18:09;99059.66;;;13.91;35.35
38880;BME280;25887;30.194;-97.880;2023-12-04T13:20:36;99066.56;;;13.86;35.01
38880;BME280;25887;30.194;-97.880;2023-12-04T13:23:02;99063.09;;;13.84;35.07
38880;BME280;25887;30.194;-97.880;2023-12-04T13:25:48;99079.47;;;13.86;35.12
38880;BME280;25887;30.194;-97.880;2023-12-04T13:28:14;99082.06;;;13.82;34.95
38880;BME280;25887;30.194;-97.880;2023-12-04T13:30:41;99083.78;;;13.80;35.37
38880;BME280;25887;30.194;-97.880;2023-12-04T13:33:08;99094.13;;;13.78;35.23
38880;BME280;25887;30.194;-97.880;2023-12-04T13:35:34;99088.09;;;13.78;35.28
38880;BME280;25887;30.194;-97.880;2023-12-04T13:38:01;99098.44;;;13.78;35.13
38880;BME280;25887;30.194;-97.880;2023-12-04T13:40:27;99101.88;;;13.78;35.40
38880;BME280;25887;30.194;-97.880;2023-12-04T13:42:57;99099.28;;;13.77;35.41
38880;BME280;25887;30.194;-97.880;2023-12-04T13:45:43;99103.59;;;13.76;35.19
38880;BME280;25887;30.194;-97.880;2023-12-04T13:48:09;99108.75;;;13.75;35.33
38880;BME280;25887;30.194;-97.880;2023-12-04T13:50:36;99113.91;;;13.75;35.27
38880;BME280;25887;30.194;-97.880;2023-12-04T13:53:03;99111.34;;;13.75;35.28
38880;BME280;25887;30.194;-97.880;2023-12-04T13:55:30;99117.38;;;13.74;35.37
38880;BME280;25887;30.194;-97.880;2023-12-04T13:58:12;99117.34;;;13.75;35.51
38880;BME280;25887;30.194;-97.880;2023-12-04T14:00:58;99125.97;;;13.76;35.03
38880;BME280;25887;30.194;-97.880;2023-12-04T14:03:26;99132.00;;;13.78;35.58
38880;BME280;25887;30.194;-97.880;2023-12-04T14:05:53;99128.53;;;13.77;35.24
38880;BME280;25887;30.194;-97.880;2023-12-04T14:08:20;99116.50;;;13.79;35.36
38880;BME280;25887;30.194;-97.880;2023-12-04T14:10:46;99127.69;;;13.80;35.42